RYR6NY EIDW-EIKY
Flight info
| Callsign | RYR6NY |
|---|---|
| Flight time | N/A |
| Altitude | 24000 |
| Route | OLONO4E OLONO DCT ABAGU DCT LUNIG |
| Aircraft | B738/M-SDE2E3FGHIRWXY/LB1 |
Departure
| Time | 2026-04-30 15:01 |
|---|---|
| Airport | Dublin Airport (EIDW) |
Arrival
| Time | N/A |
|---|---|
| Airport | Kerry Airport (EIKY) |
| Time | Latitude | Longitude | Altitude | Speed | Heading |
|---|---|---|---|---|---|
| 2026-04-30 14:42 | 53.43102 | -6.24829 | 210 ft | 0 kts | 185° |
| 2026-04-30 14:52 | 53.43118 | -6.24826 | 214 ft | 4 kts | 188° |
| 2026-04-30 14:52 | 53.43169 | -6.24800 | 213 ft | 4 kts | 216° |
| 2026-04-30 14:52 | 53.43184 | -6.24770 | 211 ft | 4 kts | 266° |
| 2026-04-30 14:53 | 53.43184 | -6.24762 | 211 ft | 0 kts | 275° |
| 2026-04-30 14:54 | 53.43184 | -6.24761 | 210 ft | 0 kts | 275° |
| 2026-04-30 14:55 | 53.43184 | -6.24762 | 210 ft | 0 kts | 275° |
| 2026-04-30 14:55 | 53.43186 | -6.24803 | 218 ft | 8 kts | 275° |
| 2026-04-30 14:55 | 53.43208 | -6.25200 | 210 ft | 23 kts | 274° |
| 2026-04-30 14:56 | 53.43078 | -6.25342 | 216 ft | 16 kts | 156° |
| 2026-04-30 14:56 | 53.42837 | -6.25185 | 215 ft | 13 kts | 200° |
| 2026-04-30 14:57 | 53.42764 | -6.25306 | 210 ft | 17 kts | 226° |
| 2026-04-30 14:57 | 53.42493 | -6.25768 | 214 ft | 34 kts | 224° |
| 2026-04-30 14:58 | 53.42269 | -6.26343 | 210 ft | 27 kts | 275° |
| 2026-04-30 14:58 | 53.42286 | -6.26649 | 210 ft | 25 kts | 275° |
| 2026-04-30 14:58 | 53.42316 | -6.27199 | 211 ft | 23 kts | 275° |
| 2026-04-30 14:59 | 53.42354 | -6.27882 | 217 ft | 35 kts | 276° |
| 2026-04-30 15:00 | 53.42264 | -6.28281 | 213 ft | 14 kts | 140° |
| 2026-04-30 15:00 | 53.42168 | -6.27637 | 210 ft | 80 kts | 95° |
| 2026-04-30 15:01 | 53.41997 | -6.24636 | 984 ft | 141 kts | 96° |
| 2026-04-30 15:01 | 53.41939 | -6.23576 | 1617 ft | 137 kts | 99° |
| 2026-04-30 15:01 | 53.41707 | -6.19434 | 2877 ft | 186 kts | 102° |
| 2026-04-30 15:02 | 53.41578 | -6.17114 | 3106 ft | 213 kts | 102° |
| 2026-04-30 15:02 | 53.41431 | -6.14488 | 3353 ft | 239 kts | 101° |
| 2026-04-30 15:03 | 53.40952 | -6.05818 | 5792 ft | 256 kts | 100° |
| 2026-04-30 15:03 | 53.39373 | -6.00759 | 7504 ft | 252 kts | 146° |
| 2026-04-30 15:04 | 53.35966 | -5.99776 | 9307 ft | 265 kts | 193° |
| 2026-04-30 15:04 | 53.31935 | -6.07003 | 11246 ft | 323 kts | 236° |
| 2026-04-30 15:05 | 53.28769 | -6.17235 | 13944 ft | 337 kts | 236° |
| 2026-04-30 15:06 | 53.26572 | -6.24251 | 15684 ft | 344 kts | 236° |
| 2026-04-30 15:06 | 53.24299 | -6.31396 | 17399 ft | 353 kts | 235° |
| 2026-04-30 15:07 | 53.21952 | -6.38699 | 19031 ft | 361 kts | 235° |
| 2026-04-30 15:07 | 53.19551 | -6.46136 | 20538 ft | 368 kts | 235° |
| 2026-04-30 15:08 | 53.17505 | -6.52447 | 21786 ft | 375 kts | 236° |
| 2026-04-30 15:08 | 53.13715 | -6.64094 | 23865 ft | 387 kts | 236° |
| 2026-04-30 15:09 | 53.11137 | -6.71990 | 24089 ft | 389 kts | 236° |
| 2026-04-30 15:09 | 53.08509 | -6.79999 | 24117 ft | 407 kts | 236° |
| 2026-04-30 15:10 | 53.05718 | -6.88458 | 24088 ft | 422 kts | 236° |
| 2026-04-30 15:11 | 53.00128 | -7.05411 | 24090 ft | 417 kts | 236° |
| 2026-04-30 15:11 | 52.97323 | -7.13852 | 24097 ft | 418 kts | 235° |
| 2026-04-30 15:12 | 52.93103 | -7.26492 | 24097 ft | 421 kts | 235° |
| 2026-04-30 15:13 | 52.90259 | -7.34975 | 24091 ft | 422 kts | 235° |
| 2026-04-30 15:14 | 52.84540 | -7.51948 | 24083 ft | 424 kts | 235° |
| 2026-04-30 15:14 | 52.80211 | -7.64721 | 23028 ft | 421 kts | 235° |
| 2026-04-30 15:16 | 52.73177 | -7.85345 | 20221 ft | 407 kts | 234° |
| 2026-04-30 15:17 | 52.67670 | -8.01361 | 17806 ft | 396 kts | 234° |
| 2026-04-30 15:18 | 52.61001 | -8.20616 | 14596 ft | 386 kts | 235° |
| 2026-04-30 15:19 | 52.57090 | -8.31859 | 12470 ft | 357 kts | 235° |